createdAt,value
2023-02-06T00:01:56.851Z,0.95
2023-02-06T00:04:24.381Z,0.75
2023-02-06T00:06:55.002Z,1.23
2023-02-06T00:09:26.125Z,0.82
2023-02-06T00:11:54.022Z,1.30
2023-02-06T00:14:22.225Z,1.45
2023-02-06T00:16:49.733Z,2.78
2023-02-06T00:19:17.794Z,2.38
2023-02-06T00:21:45.623Z,2.30
2023-02-06T00:24:13.232Z,2.35
2023-02-06T00:26:43.008Z,2.00
2023-02-06T00:29:10.232Z,2.08
2023-02-06T00:31:37.951Z,2.40
2023-02-06T00:34:22.502Z,2.40
2023-02-06T00:36:53.161Z,2.70
2023-02-06T00:39:21.165Z,2.55
2023-02-06T00:42:01.051Z,2.75
2023-02-06T00:44:30.303Z,2.95
2023-02-06T00:47:07.542Z,2.22
2023-02-06T00:49:40.991Z,2.33
2023-02-06T00:52:13.791Z,2.50
2023-02-06T00:54:46.499Z,2.20
2023-02-06T00:57:23.187Z,2.15
2023-02-06T01:00:03.708Z,2.13
2023-02-06T01:02:51.519Z,1.75
2023-02-06T01:05:36.568Z,1.60
2023-02-06T01:08:10.659Z,1.88
2023-02-06T01:10:46.553Z,2.55
2023-02-06T01:13:16.317Z,1.98
2023-02-06T01:15:49.572Z,2.13
2023-02-06T01:18:21.103Z,2.13
2023-02-06T01:20:48.613Z,2.72
2023-02-06T01:23:16.196Z,2.78
2023-02-06T01:25:45.094Z,1.45
2023-02-06T01:28:12.745Z,2.83
2023-02-06T01:30:41.857Z,1.67
2023-02-06T01:33:09.241Z,1.90
2023-02-06T01:35:37.870Z,1.95
2023-02-06T01:38:05.003Z,1.98
2023-02-06T01:40:32.750Z,1.88
2023-02-06T01:43:19.715Z,2.08
2023-02-06T01:45:49.893Z,1.88
2023-02-06T01:48:37.441Z,2.55
2023-02-06T01:51:17.766Z,1.85
2023-02-06T01:53:50.674Z,2.70
2023-02-06T01:56:26.409Z,5.30
2023-02-06T01:59:03.190Z,3.30
2023-02-06T02:01:30.783Z,2.85
2023-02-06T02:04:06.656Z,2.17
2023-02-06T02:06:36.066Z,1.33
2023-02-06T02:09:10.341Z,1.73
2023-02-06T02:11:46.692Z,2.45
2023-02-06T02:14:25.430Z,2.22
2023-02-06T02:17:25.973Z,2.03
2023-02-06T02:20:15.208Z,1.90
2023-02-06T02:23:06.128Z,1.98
2023-02-06T02:26:00.738Z,4.60
2023-02-06T02:28:30.826Z,1.98
2023-02-06T02:31:09.883Z,2.88
2023-02-06T02:33:42.755Z,3.20
2023-02-06T02:36:48.651Z,1.60
2023-02-06T02:39:19.236Z,2.08
2023-02-06T02:42:19.195Z,2.60
2023-02-06T02:45:00.198Z,2.17
2023-02-06T02:47:38.870Z,2.00
2023-02-06T02:50:06.870Z,2.03
2023-02-06T02:52:34.288Z,1.85
2023-02-06T02:55:01.428Z,1.90
2023-02-06T02:57:31.927Z,1.48
2023-02-06T03:00:00.995Z,2.90
2023-02-06T03:02:38.081Z,4.43
2023-02-06T03:05:09.002Z,3.60
2023-02-06T03:07:45.321Z,2.90
2023-02-06T03:10:15.109Z,2.30
2023-02-06T03:12:52.648Z,2.58
2023-02-06T03:15:29.996Z,2.22
2023-02-06T03:18:15.924Z,2.72
2023-02-06T03:20:46.585Z,2.55
2023-02-06T03:23:21.888Z,1.70
2023-02-06T03:25:54.958Z,1.58
2023-02-06T03:28:31.219Z,1.10
2023-02-06T03:31:03.026Z,1.85
2023-02-06T03:33:37.932Z,1.77
2023-02-06T03:36:06.063Z,1.63
2023-02-06T03:38:33.314Z,1.50
2023-02-06T03:41:01.566Z,1.70
2023-02-06T03:43:30.508Z,1.80
2023-02-06T03:46:02.903Z,1.60
2023-02-06T03:48:43.841Z,1.23
2023-02-06T03:51:20.747Z,1.23
2023-02-06T03:53:50.602Z,1.90
2023-02-06T03:56:27.946Z,1.23
2023-02-06T03:58:55.682Z,1.60
2023-02-06T04:01:23.740Z,1.25
2023-02-06T04:03:51.332Z,1.23
2023-02-06T04:06:47.588Z,1.05
2023-02-06T04:09:16.255Z,2.10
2023-02-06T04:11:53.509Z,1.38
2023-02-06T04:14:23.224Z,1.17
2023-02-06T04:16:51.444Z,1.60
2023-02-06T04:19:27.117Z,1.55
2023-02-06T04:22:08.697Z,1.70
2023-02-06T04:24:39.270Z,2.00
2023-02-06T04:27:21.844Z,2.38
2023-02-06T04:30:04.804Z,1.60
2023-02-06T04:32:32.475Z,2.03
2023-02-06T04:35:13.717Z,2.00
2023-02-06T04:38:01.991Z,1.52
2023-02-06T04:40:41.116Z,2.05
2023-02-06T04:43:19.316Z,2.00
2023-02-06T04:46:04.893Z,2.35
2023-02-06T04:48:43.024Z,2.92
2023-02-06T04:51:21.161Z,1.85
2023-02-06T04:53:54.222Z,2.47
2023-02-06T04:56:49.910Z,5.13
2023-02-06T04:59:35.728Z,7.40
2023-02-06T05:02:07.549Z,5.70
2023-02-06T05:04:42.269Z,3.45
2023-02-06T05:07:12.552Z,3.13
2023-02-06T05:09:44.985Z,3.00
2023-02-06T05:12:23.168Z,3.42
2023-02-06T05:15:01.701Z,2.80
2023-02-06T05:17:39.631Z,1.77
2023-02-06T05:20:16.987Z,2.25
2023-02-06T05:22:53.255Z,2.53
2023-02-06T05:28:45.004Z,2.15
2023-02-06T05:31:31.080Z,2.30
2023-02-06T05:34:02.854Z,2.13
2023-02-06T05:36:38.464Z,2.97
2023-02-06T05:39:21.163Z,2.60
2023-02-06T05:41:57.256Z,2.75
2023-02-06T05:44:32.159Z,2.70
2023-02-06T05:47:06.211Z,3.13
2023-02-06T05:49:36.743Z,2.63
2023-02-06T05:52:09.456Z,2.20
2023-02-06T05:54:39.786Z,3.47
2023-02-06T05:57:11.938Z,2.78
2023-02-06T05:59:52.556Z,3.20
2023-02-06T06:02:47.399Z,3.58
2023-02-06T06:13:44.196Z,2.72
2023-02-06T06:24:19.350Z,2.45
2023-02-06T06:27:12.655Z,2.63
2023-02-06T06:29:50.367Z,3.83
2023-02-06T06:32:46.163Z,3.70
2023-02-06T06:35:23.613Z,2.97
2023-02-06T06:37:53.452Z,4.05
2023-02-06T06:40:21.008Z,3.75
2023-02-06T06:42:48.139Z,4.18
2023-02-06T06:45:15.547Z,4.03
2023-02-06T06:47:42.708Z,3.78
2023-02-06T06:50:10.247Z,3.40
2023-02-06T06:52:37.403Z,4.70
2023-02-06T06:55:04.630Z,4.15
2023-02-06T06:57:32.526Z,4.22
2023-02-06T06:59:59.747Z,4.88
2023-02-06T07:02:28.512Z,3.70
2023-02-06T07:04:56.005Z,4.18
2023-02-06T07:07:23.242Z,4.80
2023-02-06T07:09:50.676Z,4.35
2023-02-06T07:12:18.061Z,4.35
2023-02-06T07:14:45.369Z,3.45
2023-02-06T07:17:12.941Z,3.33
2023-02-06T07:19:39.914Z,3.50
2023-02-06T07:22:06.958Z,3.28
2023-02-06T07:24:33.966Z,3.80
2023-02-06T07:27:01.165Z,4.45
2023-02-06T07:29:28.595Z,3.10
2023-02-06T07:31:55.656Z,3.83
2023-02-06T07:34:22.869Z,3.75
2023-02-06T07:36:50.242Z,3.38
2023-02-06T07:39:20.398Z,3.60
2023-02-06T07:41:49.906Z,4.05
2023-02-06T07:44:20.037Z,3.83
2023-02-06T07:46:47.745Z,4.20
2023-02-06T07:49:17.969Z,3.55
2023-02-06T07:54:14.650Z,4.53
2023-02-06T07:56:41.672Z,4.85
2023-02-06T07:59:09.078Z,4.40
2023-02-06T08:01:36.362Z,4.05
2023-02-06T08:04:03.997Z,3.95
2023-02-06T08:06:32.013Z,4.00
2023-02-06T08:09:00.025Z,4.30
2023-02-06T08:11:30.305Z,4.65
2023-02-06T08:13:58.180Z,4.30
2023-02-06T08:16:28.372Z,3.72
2023-02-06T08:18:59.316Z,3.78
2023-02-06T08:21:29.678Z,3.22
2023-02-06T08:24:05.316Z,3.67
2023-02-06T08:26:32.768Z,3.10
2023-02-06T08:29:03.730Z,3.67
2023-02-06T08:31:39.146Z,3.75
2023-02-06T08:34:08.617Z,4.32
2023-02-06T08:36:36.306Z,4.20
2023-02-06T08:39:07.615Z,4.18
2023-02-06T08:41:39.082Z,3.42
2023-02-06T08:44:11.856Z,3.47
2023-02-06T08:46:39.618Z,3.85
2023-02-06T08:49:20.451Z,4.57
2023-02-06T08:51:49.596Z,4.05
2023-02-06T08:54:19.828Z,4.13
2023-02-06T08:56:56.794Z,4.18
2023-02-06T08:59:24.247Z,4.10
2023-02-06T09:01:52.360Z,4.07
2023-02-06T09:04:20.250Z,4.90
2023-02-06T09:06:49.243Z,4.13
2023-02-06T09:09:21.370Z,4.07
2023-02-06T09:11:48.627Z,4.20
2023-02-06T09:16:46.156Z,5.20
2023-02-06T09:19:13.726Z,5.10
2023-02-06T09:21:40.807Z,4.50
2023-02-06T09:24:09.492Z,4.22
2023-02-06T09:26:58.097Z,3.97
2023-02-06T09:29:29.305Z,4.22
2023-02-06T09:31:59.442Z,3.97
2023-02-06T09:34:27.560Z,3.63
2023-02-06T09:36:56.918Z,4.68
2023-02-06T09:39:24.660Z,4.07
2023-02-06T09:42:02.654Z,3.90
2023-02-06T09:44:37.071Z,3.70
2023-02-06T09:47:33.151Z,3.20
2023-02-06T09:50:12.789Z,3.55
2023-02-06T09:53:13.082Z,3.95
2023-02-06T09:55:46.987Z,3.17
2023-02-06T09:58:30.384Z,3.17
2023-02-06T10:01:39.683Z,3.72
2023-02-06T10:04:20.806Z,4.20
2023-02-06T10:07:49.356Z,6.30
2023-02-06T10:14:00.363Z,4.38
2023-02-06T10:16:41.287Z,5.85
2023-02-06T10:19:33.816Z,4.93
2023-02-06T10:22:29.945Z,3.65
2023-02-06T10:25:36.323Z,4.53
2023-02-06T10:28:25.823Z,2.80
2023-02-06T10:31:28.420Z,2.63
2023-02-06T10:34:14.232Z,2.20
2023-02-06T10:37:21.954Z,3.17
2023-02-06T10:40:32.956Z,2.33
2023-02-06T10:43:30.060Z,2.70
2023-02-06T10:46:29.104Z,2.67
2023-02-06T10:49:34.940Z,3.17
2023-02-06T10:52:31.582Z,2.30
2023-02-06T10:55:28.441Z,2.83
2023-02-06T10:58:36.858Z,2.55
2023-02-06T11:01:26.070Z,2.90
2023-02-06T11:04:19.881Z,2.60
2023-02-06T11:07:07.652Z,2.80
2023-02-06T11:09:58.795Z,2.55
2023-02-06T11:12:30.983Z,3.17
2023-02-06T11:15:13.297Z,2.75
2023-02-06T11:18:03.868Z,2.47
2023-02-06T11:20:59.170Z,2.50
2023-02-06T11:23:36.972Z,2.92
2023-02-06T11:26:25.033Z,3.00
2023-02-06T11:29:02.896Z,2.15
2023-02-06T11:32:10.263Z,2.33
2023-02-06T11:34:53.556Z,2.83
2023-02-06T11:37:37.460Z,2.63
2023-02-06T11:40:22.543Z,2.90
2023-02-06T11:42:56.240Z,2.88
2023-02-06T11:45:34.712Z,2.90
2023-02-06T11:48:02.850Z,3.55
2023-02-06T11:50:40.066Z,3.38
2023-02-06T11:53:20.216Z,3.50
2023-02-06T11:56:18.867Z,3.03
2023-02-06T11:58:46.565Z,3.33
2023-02-06T12:01:26.692Z,3.33
2023-02-06T12:04:04.878Z,3.40
2023-02-06T12:06:40.871Z,3.60
2023-02-06T12:09:14.903Z,3.30
2023-02-06T12:11:55.162Z,3.28
2023-02-06T12:14:40.336Z,2.60
2023-02-06T12:17:29.895Z,3.60
2023-02-06T12:20:35.768Z,2.60
2023-02-06T12:23:34.078Z,3.03
2023-02-06T12:26:16.470Z,3.50
2023-02-06T12:29:53.257Z,3.33
2023-02-06T12:32:44.707Z,3.55
2023-02-06T12:35:51.310Z,2.42
2023-02-06T12:39:02.501Z,3.50
2023-02-06T12:42:17.275Z,2.67
2023-02-06T12:45:00.115Z,2.80
2023-02-06T12:47:59.000Z,2.67
2023-02-06T12:50:59.641Z,2.33
2023-02-06T12:53:39.450Z,2.67
2023-02-06T12:56:35.738Z,3.90
2023-02-06T12:59:05.662Z,2.63
2023-02-06T13:02:06.743Z,3.60
2023-02-06T13:04:39.723Z,2.05
2023-02-06T13:07:14.816Z,2.10
2023-02-06T13:09:52.149Z,1.85
2023-02-06T13:12:26.305Z,1.83
2023-02-06T13:15:08.316Z,1.58
2023-02-06T13:27:50.377Z,1.85
2023-02-06T13:30:52.578Z,2.55
2023-02-06T13:33:49.774Z,1.77
2023-02-06T13:36:58.758Z,1.90
2023-02-06T13:39:37.214Z,2.15
2023-02-06T13:42:54.920Z,1.73
2023-02-06T13:47:39.265Z,2.47
2023-02-06T14:07:48.675Z,2.30
2023-02-06T14:14:56.680Z,2.50
2023-02-06T14:17:59.286Z,1.95
2023-02-06T14:21:08.853Z,1.95
2023-02-06T14:23:58.454Z,1.90
2023-02-06T14:26:28.728Z,1.85
2023-02-06T14:29:32.425Z,2.05
2023-02-06T14:32:01.805Z,1.83
2023-02-06T14:34:45.766Z,1.63
2023-02-06T14:37:45.476Z,1.85
2023-02-06T14:40:25.465Z,1.90
2023-02-06T14:43:15.251Z,2.15
2023-02-06T14:46:07.923Z,2.45
2023-02-06T14:48:44.760Z,2.15
2023-02-06T14:51:27.256Z,2.20
2023-02-06T14:54:02.999Z,2.13
2023-02-06T14:56:39.406Z,1.92
2023-02-06T15:01:47.161Z,1.77
2023-02-06T15:04:44.011Z,1.30
2023-02-06T15:07:51.738Z,1.42
2023-02-06T15:14:54.988Z,0.82
2023-02-06T15:17:04.788Z,1.63
2023-02-06T15:20:45.832Z,1.48
2023-02-06T15:23:41.652Z,1.85
2023-02-06T15:26:45.853Z,2.10
2023-02-06T15:29:36.747Z,2.13
2023-02-06T15:32:18.717Z,2.75
2023-02-06T15:34:52.569Z,1.52
2023-02-06T15:37:58.952Z,1.95
2023-02-06T15:40:52.016Z,2.33
2023-02-06T15:44:41.368Z,1.30
2023-02-06T15:47:47.449Z,1.60
2023-02-06T15:50:45.892Z,1.80
2023-02-06T15:53:37.595Z,2.20
2023-02-06T15:56:39.143Z,1.67
2023-02-06T15:59:16.640Z,2.33
2023-02-06T16:01:47.064Z,3.10
2023-02-06T16:05:44.248Z,2.80
2023-02-06T16:07:56.149Z,2.55
2023-02-06T16:10:30.028Z,3.00
2023-02-06T16:13:43.096Z,3.17
2023-02-06T16:20:08.140Z,3.25
2023-02-06T16:22:44.244Z,2.95
2023-02-06T16:25:40.816Z,4.05
2023-02-06T16:28:50.398Z,3.95
2023-02-06T16:31:24.618Z,4.07
2023-02-06T16:33:53.763Z,3.17
2023-02-06T16:36:49.356Z,3.25
2023-02-06T16:42:48.291Z,3.60
2023-02-06T16:45:53.526Z,3.08
2023-02-06T16:48:38.527Z,3.17
2023-02-06T16:54:22.523Z,3.13
2023-02-06T16:57:28.154Z,4.10
2023-02-06T17:03:48.737Z,3.58
2023-02-06T17:06:48.815Z,3.75
2023-02-06T17:22:44.747Z,3.30
2023-02-06T18:01:42.625Z,4.38
2023-02-06T18:12:36.712Z,4.97
2023-02-06T18:15:43.958Z,4.18
2023-02-06T18:18:14.147Z,4.28
2023-02-06T18:23:21.476Z,4.70
2023-02-06T18:25:48.990Z,3.78
2023-02-06T18:28:37.989Z,3.70
2023-02-06T18:31:22.124Z,3.30
2023-02-06T18:34:10.800Z,3.45
2023-02-06T18:36:38.553Z,3.08
2023-02-06T18:39:10.668Z,3.72
2023-02-06T18:42:00.781Z,3.67
2023-02-06T18:44:31.495Z,3.70
2023-02-06T18:47:05.683Z,4.32
2023-02-06T18:49:34.761Z,3.92
2023-02-06T18:55:21.628Z,4.40
2023-02-06T19:05:27.527Z,4.47
2023-02-06T19:11:32.734Z,4.10
2023-02-06T19:14:01.038Z,4.60
2023-02-06T19:17:00.541Z,5.28
2023-02-06T19:19:41.476Z,5.78
2023-02-06T19:27:45.682Z,4.78
2023-02-06T19:30:22.167Z,6.18
2023-02-06T20:34:44.036Z,9.68
2023-02-06T20:37:29.832Z,7.95
2023-02-06T20:40:16.698Z,8.77
2023-02-06T20:45:37.158Z,6.75
2023-02-06T20:48:14.554Z,6.53
2023-02-06T20:51:01.149Z,6.30
2023-02-06T20:56:50.399Z,6.60
2023-02-06T20:59:38.473Z,6.55
2023-02-06T21:05:01.813Z,6.75
2023-02-06T21:07:46.082Z,6.97
2023-02-06T21:10:16.134Z,7.53
2023-02-06T21:12:53.331Z,7.20
2023-02-06T21:15:41.934Z,6.38
2023-02-06T21:18:39.248Z,6.78
2023-02-06T21:21:17.405Z,7.32
2023-02-06T21:23:47.604Z,7.10
2023-02-06T21:26:34.948Z,8.18
2023-02-06T21:31:48.637Z,6.95
2023-02-06T21:34:21.581Z,6.75
2023-02-06T21:36:49.613Z,6.95
2023-02-06T21:39:19.873Z,7.05
2023-02-06T21:41:47.868Z,7.35
2023-02-06T21:44:14.975Z,6.30
2023-02-06T21:46:42.374Z,6.75
2023-02-06T21:49:11.734Z,6.82
2023-02-06T21:51:39.284Z,6.18
2023-02-06T21:54:06.772Z,5.40
2023-02-06T21:56:36.411Z,5.00
2023-02-06T21:59:04.571Z,5.82
2023-02-06T22:01:35.082Z,4.88
2023-02-06T22:04:03.310Z,5.00
2023-02-06T22:06:31.273Z,4.57
2023-02-06T22:09:05.540Z,3.63
2023-02-06T22:11:34.419Z,4.43
2023-02-06T22:14:08.249Z,3.70
2023-02-06T22:16:36.715Z,4.70
2023-02-06T22:19:05.084Z,4.03
2023-02-06T22:21:34.371Z,4.25
2023-02-06T22:24:07.298Z,4.80
2023-02-06T22:26:38.482Z,4.35
2023-02-06T22:29:07.876Z,4.93
2023-02-06T22:31:35.538Z,4.88
2023-02-06T22:34:03.233Z,5.25
2023-02-06T22:36:32.254Z,5.68
2023-02-06T22:39:03.205Z,5.22
2023-02-06T22:41:30.607Z,5.88
2023-02-06T22:43:58.387Z,4.85
2023-02-06T22:46:27.037Z,4.68
2023-02-06T22:48:55.085Z,5.18
2023-02-06T22:51:23.219Z,6.50
2023-02-06T22:53:51.290Z,5.22
2023-02-06T22:56:27.222Z,6.50
2023-02-06T22:58:56.228Z,5.25
2023-02-06T23:01:30.216Z,4.53
2023-02-06T23:03:58.022Z,5.47
2023-02-06T23:06:36.032Z,5.32
2023-02-06T23:09:12.864Z,6.13
2023-02-06T23:11:40.738Z,5.97
2023-02-06T23:14:13.242Z,5.88
2023-02-06T23:19:13.139Z,4.88
2023-02-06T23:21:42.844Z,4.97
2023-02-06T23:24:11.026Z,6.10
2023-02-06T23:26:41.443Z,6.68
2023-02-06T23:29:09.968Z,6.07
2023-02-06T23:31:37.586Z,5.57
2023-02-06T23:34:04.715Z,6.25
2023-02-06T23:36:31.785Z,6.13
2023-02-06T23:39:01.660Z,6.50
2023-02-06T23:41:33.313Z,6.57
2023-02-06T23:44:10.528Z,5.85
2023-02-06T23:46:43.427Z,5.95
2023-02-06T23:49:16.236Z,6.45
2023-02-06T23:55:00.143Z,5.93
